Time;durP1;ratioP1;P1;durP2;ratioP2;P2;SDS_P1;SDS_P2;PMS_P1;PMS_P2;Temp;Humidity;BMP_temperature;BMP_pressure;BME280_temperature;BME280_humidity;BME280_pressure;Samples;Min_cycle;Max_cycle;Signal;HPM_P1;HPM_P2
2023/07/22 00:01:40;;;;;;;0.50;0.50;;;;;;;15.07;79.04;97284.75;5069380;28;20202;-72
2023/07/22 00:04:08;;;;;;;0.47;0.47;;;;;;;15.06;79.12;97279.59;5069575;28;20044;-72
2023/07/22 00:06:36;;;;;;;0.32;0.32;;;;;;;15.07;79.10;97276.66;5066411;28;20044;-72
2023/07/22 00:09:04;;;;;;;0.35;0.35;;;;;;;15.08;79.13;97282.88;5069730;28;20037;-73
2023/07/22 00:11:31;;;;;;;0.38;0.38;;;;;;;15.10;78.80;97280.78;5067685;28;20048;-73
2023/07/22 00:13:59;;;;;;;0.13;0.13;;;;;;;15.07;79.11;97287.44;5069584;28;20465;-73
2023/07/22 00:16:29;;;;;;;0.30;0.30;;;;;;;15.15;78.72;97274.72;5068121;28;20064;-73
2023/07/22 00:18:58;;;;;;;0.28;0.28;;;;;;;15.10;78.87;97279.94;5068335;28;20040;-72
2023/07/22 00:21:26;;;;;;;0.25;0.25;;;;;;;15.15;78.86;97272.03;5068411;28;20060;-73
2023/07/22 00:23:54;;;;;;;0.10;0.10;;;;;;;15.09;78.95;97278.31;5069775;28;20294;-71
2023/07/22 00:26:21;;;;;;;0.20;0.20;;;;;;;15.04;79.34;97271.78;5068190;28;20516;-71
2023/07/22 00:28:49;;;;;;;0.20;0.20;;;;;;;15.07;79.06;97273.97;5048809;28;20099;-72
2023/07/22 00:31:17;;;;;;;0.30;0.30;;;;;;;15.17;78.94;97277.97;5068482;28;20102;-73
2023/07/22 00:33:45;;;;;;;0.30;0.30;;;;;;;15.17;78.74;97269.91;5050795;28;20045;-72
2023/07/22 00:36:14;;;;;;;0.30;0.30;;;;;;;15.19;78.93;97278.56;5069194;28;20127;-71
2023/07/22 00:38:42;;;;;;;0.30;0.30;;;;;;;15.17;78.97;97281.47;5051180;28;20582;-71
2023/07/22 00:41:11;;;;;;;0.32;0.32;;;;;;;15.24;78.63;97289.47;5069634;28;20044;-75
2023/07/22 00:43:39;;;;;;;0.40;0.40;;;;;;;15.07;79.19;97281.22;5050308;28;20076;-73
2023/07/22 00:46:06;;;;;;;0.40;0.40;;;;;;;15.07;79.25;97276.66;5051242;28;20042;-73
2023/07/22 00:48:34;;;;;;;0.22;0.22;;;;;;;15.09;79.10;97275.63;5069846;28;20504;-72
2023/07/22 00:51:02;;;;;;;0.38;0.38;;;;;;;15.13;79.06;97276.81;5066951;28;20045;-73
2023/07/22 00:53:31;;;;;;;0.40;0.40;;;;;;;15.19;78.92;97271.31;5051588;28;20039;-74
2023/07/22 00:55:59;;;;;;;0.30;0.30;;;;;;;15.34;78.16;97278.94;5068736;28;20098;-73
2023/07/22 00:58:26;;;;;;;0.20;0.20;;;;;;;15.23;78.44;97279.75;5049928;28;20044;-73
2023/07/22 01:00:54;;;;;;;0.20;0.20;;;;;;;15.06;79.02;97283.09;5047834;28;20460;-72
2023/07/22 01:03:22;;;;;;;0.20;0.20;;;;;;;14.90;80.08;97285.63;5051065;28;20040;-73
2023/07/22 01:05:51;;;;;;;0.32;0.32;;;;;;;14.86;80.46;97279.06;5069151;28;20052;-72
2023/07/22 01:08:19;;;;;;;0.32;0.32;;;;;;;14.94;80.16;97286.84;5051927;28;20083;-73
2023/07/22 01:10:49;;;;;;;0.38;0.38;;;;;;;14.76;80.62;97278.81;5049816;28;20701;-73
2023/07/22 01:13:19;;;;;;;0.32;0.32;;;;;;;14.75;80.84;97275.31;5069578;28;20502;-73
2023/07/22 01:15:47;;;;;;;0.30;0.30;;;;;;;14.81;80.77;97276.28;5051005;28;20049;-73
2023/07/22 01:18:15;;;;;;;0.38;0.38;;;;;;;14.78;81.09;97271.34;5068673;28;20048;-75
2023/07/22 01:20:43;;;;;;;0.22;0.22;;;;;;;14.80;80.57;97272.75;5051489;28;20048;-73
2023/07/22 01:23:12;;;;;;;0.22;0.22;;;;;;;14.77;80.78;97278.59;5070031;28;20044;-73
2023/07/22 01:25:40;;;;;;;0.30;0.30;;;;;;;14.73;80.75;97273.91;5070572;28;20506;-73
2023/07/22 01:28:10;;;;;;;0.28;0.28;;;;;;;14.67;81.03;97281.81;5053736;28;20040;-73
2023/07/22 01:30:38;;;;;;;0.30;0.30;;;;;;;14.66;81.05;97276.66;5055816;28;20136;-73
2023/07/22 01:33:06;;;;;;;0.40;0.40;;;;;;;14.71;80.73;97274.13;5074482;28;20071;-74
2023/07/22 01:35:35;;;;;;;0.30;0.30;;;;;;;14.63;81.23;97272.59;5055677;28;20055;-74
2023/07/22 01:38:04;;;;;;;0.50;0.50;;;;;;;14.65;81.47;97275.03;5073895;28;20115;-74
2023/07/22 01:40:33;;;;;;;0.28;0.28;;;;;;;14.86;80.76;97277.19;5075489;28;20082;-74
2023/07/22 01:43:00;;;;;;;0.20;0.20;;;;;;;14.77;80.60;97269.69;5054051;28;20041;-75
2023/07/22 01:45:28;;;;;;;0.40;0.40;;;;;;;14.75;80.87;97269.94;5056349;28;20497;-72
2023/07/22 01:47:56;;;;;;;0.40;0.40;;;;;;;14.72;80.89;97265.03;5074117;28;20127;-72
2023/07/22 01:50:24;;;;;;;0.32;0.32;;;;;;;14.75;80.89;97278.00;5055423;28;20048;-74
2023/07/22 01:52:51;;;;;;;0.45;0.45;;;;;;;14.72;80.92;97283.84;5055986;28;20087;-74
2023/07/22 01:55:20;;;;;;;0.60;0.60;;;;;;;14.74;80.75;97284.44;5073578;28;20478;-72
2023/07/22 01:57:50;;;;;;;0.20;0.20;;;;;;;14.71;80.84;97282.19;5074255;28;20170;-72
2023/07/22 02:00:17;;;;;;;0.30;0.30;;;;;;;14.68;80.96;97279.97;5054452;28;20049;-72
2023/07/22 02:02:46;;;;;;;0.38;0.38;;;;;;;14.75;80.78;97286.03;5054582;28;20049;-73
2023/07/22 02:05:13;;;;;;;0.40;0.40;;;;;;;14.76;80.63;97282.31;5071723;28;20050;-72
2023/07/22 02:07:41;;;;;;;0.40;0.40;;;;;;;14.82;80.40;97288.66;5053656;28;20044;-72
2023/07/22 02:10:10;;;;;;;0.20;0.20;;;;;;;14.82;80.52;97284.09;5053327;28;20037;-73
2023/07/22 02:12:38;;;;;;;0.30;0.30;;;;;;;14.86;80.38;97295.19;5051025;28;20051;-71
2023/07/22 02:15:08;;;;;;;0.30;0.30;;;;;;;14.85;80.35;97296.25;5051332;28;20071;-73
2023/07/22 02:17:36;;;;;;;0.40;0.40;;;;;;;14.79;80.45;97294.47;5070062;28;20131;-72
2023/07/22 02:20:05;;;;;;;0.40;0.40;;;;;;;14.79;80.42;97294.47;5052550;28;20517;-73
2023/07/22 02:22:33;;;;;;;0.30;0.30;;;;;;;14.72;80.61;97299.13;5053520;28;20102;-72
2023/07/22 02:25:03;;;;;;;0.40;0.40;;;;;;;14.69;80.85;97301.22;5068815;28;20032;-72
2023/07/22 02:27:31;;;;;;;0.35;0.35;;;;;;;14.66;80.69;97303.53;5053807;28;20064;-71
2023/07/22 02:29:59;;;;;;;0.25;0.25;;;;;;;14.66;80.65;97295.47;5071870;28;20120;-72
2023/07/22 02:32:28;;;;;;;0.65;0.65;;;;;;;14.69;80.50;97295.03;5050022;28;20512;-71
2023/07/22 02:34:56;;;;;;;0.30;0.30;;;;;;;14.68;80.67;97301.44;5051143;28;20037;-71
2023/07/22 02:37:24;;;;;;;0.40;0.40;;;;;;;14.75;80.57;97298.66;5069961;28;20068;-71
2023/07/22 02:39:52;;;;;;;0.38;0.38;;;;;;;14.77;80.02;97297.38;5052881;28;20075;-71
2023/07/22 02:42:19;;;;;;;0.25;0.25;;;;;;;14.75;80.40;97296.78;5069258;28;20041;-71
2023/07/22 02:44:47;;;;;;;0.30;0.30;;;;;;;14.68;80.25;97299.59;5051425;28;20051;-71
2023/07/22 02:47:15;;;;;;;0.30;0.30;;;;;;;14.64;80.85;97311.81;5053234;28;20151;-71
2023/07/22 02:49:44;;;;;;;0.35;0.35;;;;;;;14.47;81.35;97301.94;5069148;28;20102;-72
2023/07/22 02:52:13;;;;;;;0.30;0.30;;;;;;;14.48;81.49;97306.28;5053022;28;20049;-71
2023/07/22 02:54:41;;;;;;;0.30;0.30;;;;;;;14.50;81.21;97302.31;5069142;28;20074;-72
2023/07/22 02:57:09;;;;;;;0.30;0.30;;;;;;;14.54;81.05;97310.72;5071465;28;20041;-71
2023/07/22 02:59:37;;;;;;;0.43;0.43;;;;;;;14.57;80.85;97304.91;5052537;28;20458;-72
2023/07/22 03:02:04;;;;;;;0.40;0.40;;;;;;;14.71;80.46;97317.13;5071363;28;20451;-74
2023/07/22 03:04:33;;;;;;;0.60;0.60;;;;;;;14.75;79.91;97312.09;5049883;28;20045;-71
2023/07/22 03:07:02;;;;;;;0.25;0.25;;;;;;;14.59;80.47;97324.31;5052771;28;20048;-72
2023/07/22 03:09:30;;;;;;;0.20;0.20;;;;;;;14.59;80.74;97319.75;5067942;28;20405;-74
2023/07/22 03:11:57;;;;;;;0.22;0.22;;;;;;;14.59;80.50;97324.31;5067774;28;20121;-72
2023/07/22 03:14:26;;;;;;;0.30;0.30;;;;;;;14.54;80.60;97316.09;5071139;28;20106;-72
2023/07/22 03:16:54;;;;;;;0.13;0.13;;;;;;;14.59;80.17;97319.75;5070338;28;20448;-72
2023/07/22 03:19:21;;;;;;;0.30;0.30;;;;;;;14.57;80.43;97321.03;5071010;28;20048;-72
2023/07/22 03:21:49;;;;;;;0.38;0.38;;;;;;;14.55;80.58;97320.41;5071088;28;20501;-72
2023/07/22 03:24:18;;;;;;;0.22;0.22;;;;;;;14.53;80.44;97330.59;5069697;28;20069;-74
2023/07/22 03:26:46;;;;;;;0.20;0.20;;;;;;;14.44;80.37;97334.59;5070600;28;20054;-74
2023/07/22 03:29:14;;;;;;;0.35;0.35;;;;;;;14.45;80.53;97328.19;5049973;28;20514;-75
2023/07/22 03:31:41;;;;;;;0.25;0.25;;;;;;;14.34;80.90;97335.09;5051886;28;20048;-73
2023/07/22 03:34:09;;;;;;;0.38;0.38;;;;;;;14.31;80.80;97336.41;5051109;28;20044;-72
2023/07/22 03:36:37;;;;;;;0.40;0.40;;;;;;;14.40;80.63;97341.50;5069472;28;20055;-73
2023/07/22 03:39:05;;;;;;;0.30;0.30;;;;;;;14.36;80.78;97340.25;5052265;28;20128;-72
2023/07/22 03:41:34;;;;;;;0.28;0.28;;;;;;;14.34;80.44;97329.75;5052011;28;20079;-71
2023/07/22 03:44:02;;;;;;;0.20;0.20;;;;;;;14.34;80.57;97338.63;5051414;28;20048;-73
2023/07/22 03:46:30;;;;;;;0.35;0.35;;;;;;;14.40;80.73;97345.00;5051916;28;20044;-74
2023/07/22 03:48:57;;;;;;;0.30;0.30;;;;;;;14.33;80.69;97339.66;5069858;28;20484;-73
2023/07/22 03:51:25;;;;;;;0.50;0.50;;;;;;;14.34;80.24;97338.63;5051156;28;20125;-73
2023/07/22 03:53:53;;;;;;;0.40;0.40;;;;;;;14.36;79.99;97341.09;5070329;28;20051;-73
2023/07/22 03:56:23;;;;;;;0.32;0.32;;;;;;;14.37;80.31;97349.97;5052027;28;20055;-73
2023/07/22 03:58:53;;;;;;;0.30;0.30;;;;;;;14.30;80.35;97353.56;5049915;28;20144;-72
2023/07/22 04:01:21;;;;;;;0.20;0.20;;;;;;;14.21;80.32;97346.03;5047479;28;20102;-73
2023/07/22 04:03:49;;;;;;;0.30;0.30;;;;;;;14.16;80.79;97345.84;5068991;28;20094;-73
2023/07/22 04:06:17;;;;;;;0.40;0.40;;;;;;;14.12;80.53;97347.38;5069911;28;20036;-75
2023/07/22 04:08:45;;;;;;;0.30;0.30;;;;;;;14.19;80.61;97343.56;5069008;28;20048;-73
2023/07/22 04:11:14;;;;;;;0.30;0.30;;;;;;;14.23;80.12;97334.00;5069555;28;20064;-73
2023/07/22 04:13:41;;;;;;;0.40;0.40;;;;;;;14.31;79.90;97335.56;5069687;28;20045;-73
2023/07/22 04:16:10;;;;;;;0.32;0.32;;;;;;;14.32;79.58;97338.03;5052941;28;20032;-73
2023/07/22 04:18:38;;;;;;;0.40;0.40;;;;;;;14.42;79.24;97340.22;5069744;28;20119;-72
2023/07/22 04:21:06;;;;;;;0.35;0.35;;;;;;;14.34;79.17;97341.31;5070866;28;20317;-72
2023/07/22 04:23:33;;;;;;;0.40;0.40;;;;;;;14.39;79.58;97347.88;5050731;28;20127;-75
2023/07/22 04:26:04;;;;;;;0.30;0.30;;;;;;;14.52;79.36;97347.75;5069925;28;20034;-73
2023/07/22 04:28:32;;;;;;;0.63;0.63;;;;;;;14.58;78.77;97353.03;5052167;28;20098;-73
2023/07/22 04:31:00;;;;;;;0.40;0.40;;;;;;;14.52;78.32;97353.13;5067490;28;20051;-74
2023/07/22 04:33:29;;;;;;;0.32;0.32;;;;;;;14.32;79.21;97364.06;5068976;28;20052;-74
2023/07/22 04:35:59;;;;;;;0.22;0.22;;;;;;;14.21;79.29;97371.00;5052361;28;20442;-74
2023/07/22 04:38:26;;;;;;;0.30;0.30;;;;;;;14.24;79.11;97364.34;5052002;28;20049;-74
2023/07/22 04:40:54;;;;;;;0.30;0.30;;;;;;;14.20;79.42;97368.53;5068784;28;20056;-74
2023/07/22 04:43:22;;;;;;;0.20;0.20;;;;;;;14.26;79.52;97365.78;5069108;28;20068;-76
2023/07/22 04:45:50;;;;;;;0.30;0.30;;;;;;;14.27;78.94;97362.03;5069143;28;20102;-74
2023/07/22 04:48:21;;;;;;;0.30;0.30;;;;;;;14.33;79.00;97361.13;5066926;28;20046;-75
2023/07/22 04:50:51;;;;;;;0.20;0.20;;;;;;;14.48;78.38;97363.50;5068144;28;20052;-75
2023/07/22 04:53:19;;;;;;;0.30;0.30;;;;;;;14.32;79.17;97364.91;5067659;28;20040;-73
2023/07/22 04:55:47;;;;;;;0.10;0.10;;;;;;;14.21;79.37;97370.19;5068854;28;20187;-74
2023/07/22 04:58:14;;;;;;;0.20;0.20;;;;;;;14.23;79.04;97368.88;5069160;28;20119;-76
2023/07/22 05:00:43;;;;;;;0.35;0.35;;;;;;;14.20;79.41;97372.03;5067743;28;20043;-74
2023/07/22 05:03:11;;;;;;;0.20;0.20;;;;;;;14.27;79.40;97371.97;5068124;28;20071;-74
2023/07/22 05:05:39;;;;;;;0.38;0.38;;;;;;;14.26;79.26;97386.44;5067768;28;20072;-76
2023/07/22 05:08:08;;;;;;;0.30;0.30;;;;;;;14.29;79.24;97381.44;5069024;28;20058;-74
2023/07/22 05:10:37;;;;;;;0.30;0.30;;;;;;;14.42;78.76;97383.19;5068671;28;20501;-74
2023/07/22 05:13:05;;;;;;;0.30;0.30;;;;;;;14.47;78.53;97387.88;5069181;28;20040;-74
2023/07/22 05:15:33;;;;;;;0.47;0.47;;;;;;;14.42;78.97;97385.06;5067725;28;20520;-74
2023/07/22 05:18:00;;;;;;;0.22;0.22;;;;;;;14.47;78.84;97388.69;5069697;28;20452;-75
2023/07/22 05:20:28;;;;;;;0.28;0.28;;;;;;;14.51;78.35;97391.75;5066630;28;20052;-74
2023/07/22 05:22:56;;;;;;;0.40;0.40;;;;;;;14.55;78.15;97390.25;5067951;28;20068;-73
2023/07/22 05:25:25;;;;;;;0.40;0.40;;;;;;;14.66;78.20;97397.56;5050620;28;20473;-74
2023/07/22 05:27:53;;;;;;;0.47;0.47;;;;;;;14.68;77.86;97387.41;5066065;28;20045;-74
2023/07/22 05:30:21;;;;;;;0.20;0.20;;;;;;;14.69;77.41;97389.06;5067155;28;20151;-74
2023/07/22 05:33:02;;;;;;;0.30;0.30;;;;;;;14.73;77.39;97392.94;5068718;28;20086;-76
2023/07/22 05:35:30;;;;;;;0.40;0.40;;;;;;;14.74;77.22;97389.22;5050135;28;20120;-75
2023/07/22 05:37:57;;;;;;;0.40;0.40;;;;;;;14.76;77.08;97397.03;5068447;28;20071;-74
2023/07/22 05:40:26;;;;;;;0.30;0.30;;;;;;;14.78;76.98;97395.75;5068093;28;20111;-75
2023/07/22 05:42:54;;;;;;;0.40;0.40;;;;;;;14.84;76.73;97396.75;5067929;28;20049;-75
2023/07/22 05:45:22;;;;;;;0.22;0.22;;;;;;;14.87;76.39;97391.72;5066131;28;20127;-74
2023/07/22 05:47:49;;;;;;;0.28;0.28;;;;;;;14.91;76.59;97392.91;5067576;28;20124;-73
2023/07/22 05:50:17;;;;;;;0.30;0.30;;;;;;;14.96;76.05;97394.91;5069403;28;20077;-74
2023/07/22 05:52:45;;;;;;;0.43;0.43;;;;;;;14.96;75.92;97393.03;5068017;28;20040;-74
2023/07/22 05:55:13;;;;;;;0.22;0.22;;;;;;;14.98;75.95;97392.81;5068979;28;20044;-73
2023/07/22 05:57:42;;;;;;;0.40;0.40;;;;;;;14.92;75.72;97393.72;5068577;28;20045;-74
2023/07/22 06:00:12;;;;;;;0.20;0.20;;;;;;;15.04;75.77;97400.81;5068256;28;20051;-73
2023/07/22 06:02:41;;;;;;;0.40;0.40;;;;;;;15.17;75.50;97399.78;5067912;28;20508;-73
2023/07/22 06:05:09;;;;;;;0.30;0.30;;;;;;;15.17;75.29;97404.34;5067305;28;20126;-75
2023/07/22 06:07:37;;;;;;;0.35;0.35;;;;;;;15.10;74.94;97407.13;5067885;28;20106;-74
2023/07/22 06:10:06;;;;;;;0.32;0.32;;;;;;;15.13;74.77;97408.53;5067906;28;20048;-73
2023/07/22 06:12:34;;;;;;;0.32;0.32;;;;;;;15.21;74.65;97411.72;5067979;28;20040;-73
2023/07/22 06:15:04;;;;;;;0.30;0.30;;;;;;;15.24;73.72;97410.47;5071243;28;20044;-74
2023/07/22 06:17:32;;;;;;;0.30;0.30;;;;;;;15.27;73.85;97416.19;5069307;28;20035;-73
2023/07/22 06:19:59;;;;;;;0.20;0.20;;;;;;;15.33;73.86;97419.84;5068201;28;20044;-75
2023/07/22 06:22:27;;;;;;;0.20;0.20;;;;;;;15.39;73.23;97422.44;5068691;28;20071;-74
2023/07/22 06:24:55;;;;;;;0.35;0.35;;;;;;;15.49;73.21;97426.41;5070949;28;20132;-74
2023/07/22 06:27:23;;;;;;;0.30;0.30;;;;;;;15.52;73.04;97418.72;5071329;28;20053;-74
2023/07/22 06:29:50;;;;;;;0.20;0.20;;;;;;;15.57;72.55;97424.28;5073880;28;20093;-75
2023/07/22 06:32:19;;;;;;;0.22;0.22;;;;;;;15.68;71.96;97425.31;5074752;28;20041;-74
2023/07/22 06:34:47;;;;;;;0.30;0.30;;;;;;;15.80;71.47;97415.41;5073646;28;20044;-74
2023/07/22 06:37:15;;;;;;;0.20;0.20;;;;;;;15.94;71.22;97416.84;5071611;28;20451;-74
2023/07/22 06:39:43;;;;;;;0.28;0.28;;;;;;;15.84;70.54;97410.38;5070075;28;20049;-74
2023/07/22 06:42:11;;;;;;;0.28;0.28;;;;;;;15.81;70.17;97402.78;5070310;28;20044;-74
2023/07/22 06:44:38;;;;;;;0.20;0.20;;;;;;;15.89;69.80;97407.81;5070743;28;20065;-75
2023/07/22 06:47:06;;;;;;;0.40;0.40;;;;;;;16.05;69.77;97423.28;5070127;28;20116;-74
2023/07/22 06:49:35;;;;;;;0.30;0.30;;;;;;;16.15;69.00;97421.66;5070943;28;20033;-74
2023/07/22 06:52:04;;;;;;;0.40;0.40;;;;;;;16.30;68.50;97431.13;5071124;28;20465;-74
2023/07/22 06:54:31;;;;;;;0.43;0.43;;;;;;;16.34;67.79;97432.28;5070339;28;20042;-75
2023/07/22 06:56:59;;;;;;;0.30;0.30;;;;;;;16.28;60.53;97434.06;5076374;28;20036;-74
2023/07/22 06:59:27;;;;;;;0.30;0.30;;;;;;;16.22;59.49;97432.28;5072221;28;20043;-73
2023/07/22 07:01:54;;;;;;;0.40;0.40;;;;;;;16.36;58.40;97432.88;5072069;28;20036;-72
2023/07/22 07:04:22;;;;;;;0.20;0.20;;;;;;;16.40;57.88;97432.16;5072304;28;20097;-74
2023/07/22 07:06:51;;;;;;;0.38;0.38;;;;;;;16.57;58.20;97437.66;5071437;28;20124;-73
2023/07/22 07:09:19;;;;;;;0.40;0.40;;;;;;;16.76;58.76;97430.28;5070976;28;20036;-73
2023/07/22 07:11:47;;;;;;;0.13;0.13;;;;;;;16.83;59.46;97431.78;5070872;28;20466;-75
2023/07/22 07:14:14;;;;;;;0.30;0.30;;;;;;;17.04;58.36;97443.78;5071519;28;20052;-74
2023/07/22 07:16:42;;;;;;;0.22;0.22;;;;;;;17.04;56.77;97443.78;5070762;28;20051;-74
2023/07/22 07:19:10;;;;;;;0.30;0.30;;;;;;;17.16;57.20;97447.28;5070632;28;20449;-73
2023/07/22 07:21:37;;;;;;;0.20;0.20;;;;;;;17.18;54.10;97450.56;5071318;28;20056;-73
2023/07/22 07:24:07;;;;;;;0.30;0.30;;;;;;;17.06;52.78;97457.03;5070187;28;20055;-74
2023/07/22 07:26:34;;;;;;;0.32;0.32;;;;;;;17.17;51.39;97448.09;5069972;28;20040;-74
2023/07/22 07:29:02;;;;;;;0.15;0.15;;;;;;;17.31;54.20;97454.03;5069160;28;20079;-73
2023/07/22 07:31:30;;;;;;;0.25;0.25;;;;;;;17.32;53.03;97459.19;5069513;28;20036;-72
2023/07/22 07:34:00;;;;;;;0.30;0.30;;;;;;;17.27;52.25;97448.28;5070001;28;20052;-73
2023/07/22 07:36:28;;;;;;;0.20;0.20;;;;;;;17.61;52.19;97454.59;5050372;28;20101;-73
2023/07/22 07:38:56;;;;;;;0.30;0.30;;;;;;;17.87;52.44;97461.28;5070116;28;20071;-73
2023/07/22 07:41:25;;;;;;;0.30;0.30;;;;;;;18.04;48.03;97466.69;5070295;28;20043;-72
2023/07/22 07:43:53;;;;;;;0.22;0.22;;;;;;;18.13;46.38;97465.22;5071067;28;20036;-73
2023/07/22 07:46:23;;;;;;;0.30;0.30;;;;;;;18.04;47.91;97461.31;5066633;28;20037;-73
2023/07/22 07:48:53;;;;;;;0.40;0.40;;;;;;;18.23;50.04;97468.91;5070149;28;20053;-73
2023/07/22 07:51:22;;;;;;;0.30;0.30;;;;;;;18.56;50.80;97468.06;5068933;28;20040;-73
2023/07/22 07:53:50;;;;;;;0.30;0.30;;;;;;;18.76;50.11;97472.13;5049840;28;20047;-73
2023/07/22 07:56:19;;;;;;;0.40;0.40;;;;;;;18.93;50.20;97468.31;5070272;28;20040;-73
2023/07/22 07:58:50;;;;;;;0.30;0.30;;;;;;;19.00;49.27;97468.13;5069973;28;20040;-73
2023/07/22 08:01:18;;;;;;;0.22;0.22;;;;;;;18.84;49.19;97464.41;5069288;28;20444;-73
2023/07/22 08:03:46;;;;;;;0.40;0.40;;;;;;;19.15;48.36;97459.38;5069992;28;20044;-73
2023/07/22 08:06:14;;;;;;;0.50;0.50;;;;;;;19.21;47.96;97459.19;5069621;28;20032;-73
2023/07/22 08:08:46;;;;;;;0.30;0.30;;;;;;;19.29;47.36;97463.34;5069118;28;20036;-73
2023/07/22 08:11:15;;;;;;;0.00;0.00;;;;;;;19.16;47.57;97463.72;5066764;28;20583;-73
2023/07/22 08:13:44;;;;;;;0.30;0.30;;;;;;;19.33;46.62;97461.75;5069328;28;20033;-73
2023/07/22 08:16:14;;;;;;;0.20;0.20;;;;;;;19.31;45.43;97458.50;5068164;28;20079;-73
2023/07/22 08:18:42;;;;;;;0.20;0.20;;;;;;;19.50;45.13;97459.81;5068939;28;20044;-73
2023/07/22 08:21:10;;;;;;;0.30;0.30;;;;;;;19.73;44.30;97458.66;5068499;28;20040;-73
2023/07/22 08:23:38;;;;;;;0.30;0.30;;;;;;;19.63;43.50;97469.41;5069492;28;20048;-73
2023/07/22 08:26:06;;;;;;;0.15;0.15;;;;;;;19.73;43.50;97445.13;5065573;28;20042;-73
2023/07/22 08:28:34;;;;;;;0.10;0.10;;;;;;;19.92;43.53;97453.72;5068955;28;20398;-73
2023/07/22 08:31:02;;;;;;;0.30;0.30;;;;;;;19.75;41.59;97459.25;5066527;28;20053;-73
2023/07/22 08:33:32;;;;;;;0.20;0.20;;;;;;;19.41;43.10;97454.00;5069044;28;20044;-73
2023/07/22 08:36:02;;;;;;;0.20;0.20;;;;;;;19.84;42.65;97457.69;5069176;28;20037;-73
2023/07/22 08:38:30;;;;;;;0.25;0.25;;;;;;;20.25;42.70;97460.75;5068541;28;20047;-73
2023/07/22 08:40:58;;;;;;;0.22;0.22;;;;;;;20.57;41.15;97444.47;5068184;28;20046;-73
2023/07/22 08:43:28;;;;;;;0.13;0.13;;;;;;;20.43;41.72;97454.97;5068908;28;20404;-73
2023/07/22 08:45:59;;;;;;;0.20;0.20;;;;;;;20.33;41.43;97460.28;5068879;28;20105;-73
2023/07/22 08:48:33;;;;;;;0.28;0.28;;;;;;;20.67;40.12;97449.94;5069261;28;20060;-73
2023/07/22 08:51:05;;;;;;;0.30;0.30;;;;;;;20.49;41.23;97456.63;5067715;28;20094;-73
2023/07/22 08:53:33;;;;;;;0.20;0.20;;;;;;;20.68;41.01;97454.28;5069039;28;20105;-73
2023/07/22 08:56:01;;;;;;;0.10;0.10;;;;;;;20.65;38.22;97460.25;5051459;28;20128;-72
2023/07/22 08:58:29;;;;;;;0.20;0.20;;;;;;;20.43;38.94;97454.97;5069666;28;20686;-73
2023/07/22 09:00:57;;;;;;;0.20;0.20;;;;;;;20.14;39.52;97457.94;5068277;28;20127;-73
2023/07/22 09:03:25;;;;;;;0.60;0.60;;;;;;;19.97;40.94;97451.88;5066887;28;20040;-72
2023/07/22 09:05:55;;;;;;;0.30;0.30;;;;;;;20.41;39.58;97449.78;5065315;28;20860;-72
2023/07/22 09:08:22;;;;;;;0.25;0.25;;;;;;;20.79;38.23;97451.38;5062466;28;20505;-72
2023/07/22 09:10:50;;;;;;;0.20;0.20;;;;;;;20.91;38.53;97458.50;5067871;28;20135;-72
2023/07/22 09:13:20;;;;;;;0.20;0.20;;;;;;;20.72;37.99;97464.38;5068806;28;20045;-73
2023/07/22 09:15:48;;;;;;;0.17;0.17;;;;;;;20.41;38.63;97447.09;5067101;28;20043;-73
2023/07/22 09:18:16;;;;;;;0.20;0.20;;;;;;;20.46;38.60;97438.16;5068068;28;20492;-72
2023/07/22 09:20:44;;;;;;;0.20;0.20;;;;;;;20.99;37.19;97444.41;5068145;28;20048;-72
2023/07/22 09:23:14;;;;;;;0.20;0.20;;;;;;;20.81;37.38;97445.69;5069252;28;20036;-72
2023/07/22 09:25:42;;;;;;;0.22;0.22;;;;;;;20.57;38.67;97439.84;5066829;28;20040;-72
2023/07/22 09:28:10;;;;;;;0.13;0.13;;;;;;;20.42;38.18;97442.47;5064668;28;20044;-73
2023/07/22 09:30:39;;;;;;;0.20;0.20;;;;;;;20.28;39.02;97444.78;5068138;28;20080;-73
2023/07/22 09:33:09;;;;;;;0.20;0.20;;;;;;;20.35;38.45;97439.97;5068057;28;20091;-75
2023/07/22 09:35:45;;;;;;;0.28;0.28;;;;;;;21.01;37.27;97440.34;5069607;28;20501;-73
2023/07/22 09:38:15;;;;;;;0.13;0.13;;;;;;;20.77;37.08;97433.72;5068760;28;20054;-73
2023/07/22 09:40:43;;;;;;;0.20;0.20;;;;;;;20.83;38.05;97441.63;5068564;28;20501;-73
2023/07/22 09:43:12;;;;;;;0.10;0.10;;;;;;;21.11;37.85;97434.97;5071608;28;20386;-72
2023/07/22 09:45:39;;;;;;;0.22;0.22;;;;;;;21.53;36.34;97447.59;5072729;28;20055;-72
2023/07/22 09:48:10;;;;;;;0.20;0.20;;;;;;;21.52;36.03;97444.06;5071134;28;20033;-72
2023/07/22 09:50:38;;;;;;;0.20;0.20;;;;;;;21.02;36.45;97443.88;5073608;28;20044;-73
2023/07/22 09:53:07;;;;;;;0.52;0.52;;;;;;;20.98;36.88;97445.47;5070947;28;20036;-74
2023/07/22 09:55:36;;;;;;;0.22;0.22;;;;;;;20.77;37.49;97447.28;5072934;28;20036;-74
2023/07/22 09:58:05;;;;;;;0.22;0.22;;;;;;;20.81;36.81;97446.50;5073724;28;20036;-73
2023/07/22 10:00:34;;;;;;;0.30;0.30;;;;;;;20.89;37.60;97439.75;5074701;28;20064;-73
2023/07/22 10:03:04;;;;;;;0.52;0.52;;;;;;;21.02;37.17;97443.88;5072042;28;20052;-74
2023/07/22 10:05:34;;;;;;;0.30;0.30;;;;;;;21.32;36.57;97448.63;5071394;28;20029;-73
2023/07/22 10:08:04;;;;;;;0.20;0.20;;;;;;;20.79;35.99;97445.13;5072725;28;20068;-74
2023/07/22 10:10:33;;;;;;;0.20;0.20;;;;;;;21.11;36.25;97440.41;5072472;28;20116;-74
2023/07/22 10:13:03;;;;;;;0.20;0.20;;;;;;;21.51;35.81;97438.91;5072816;28;20083;-73
2023/07/22 10:15:33;;;;;;;0.15;0.15;;;;;;;22.01;35.63;97431.97;5070499;28;20028;-73
2023/07/22 10:18:01;;;;;;;0.10;0.10;;;;;;;22.25;34.37;97433.00;5072718;28;20106;-73
2023/07/22 10:20:29;;;;;;;0.17;0.17;;;;;;;21.98;35.09;97427.88;5070191;28;20667;-73
2023/07/22 10:22:57;;;;;;;0.22;0.22;;;;;;;22.19;35.38;97439.56;5072572;28;20098;-74
2023/07/22 10:25:25;;;;;;;0.57;0.57;;;;;;;21.82;35.56;97432.44;5055096;28;20062;-72
2023/07/22 10:27:53;;;;;;;0.08;0.08;;;;;;;21.49;35.97;97439.16;5052146;28;20405;-73
2023/07/22 10:30:22;;;;;;;0.15;0.15;;;;;;;21.51;35.25;97434.28;5071299;28;20148;-73
2023/07/22 10:32:53;;;;;;;0.20;0.20;;;;;;;21.04;36.21;97439.00;5069933;28;20060;-74
2023/07/22 10:35:24;;;;;;;0.20;0.20;;;;;;;21.09;36.91;97439.03;5072048;28;20102;-74
2023/07/22 10:37:53;;;;;;;0.20;0.20;;;;;;;20.96;36.40;97444.97;5070690;28;20544;-74
2023/07/22 10:40:27;;;;;;;0.20;0.20;;;;;;;21.18;35.91;97430.13;5073814;28;20045;-74
2023/07/22 10:42:58;;;;;;;0.30;0.30;;;;;;;21.28;36.50;97433.97;5071144;28;20454;-74
2023/07/22 10:45:29;;;;;;;0.20;0.20;;;;;;;21.41;36.27;97433.44;5070469;28;20051;-74
2023/07/22 10:48:05;;;;;;;0.30;0.30;;;;;;;21.39;35.82;97433.72;5071605;28;20501;-74
2023/07/22 10:50:40;;;;;;;0.30;0.30;;;;;;;21.34;35.40;97431.00;5072945;28;20040;-72
2023/07/22 10:53:14;;;;;;;0.20;0.20;;;;;;;21.26;35.66;97426.09;5075332;28;20045;-72
2023/07/22 10:56:08;;;;;;;0.05;0.05;;;;;;;21.00;35.74;97422.44;5068874;28;20413;-72
2023/07/22 10:58:57;;;;;;;0.22;0.22;;;;;;;20.85;36.37;97423.19;5070383;28;20127;-73
2023/07/22 11:01:32;;;;;;;0.13;0.13;;;;;;;20.89;35.83;97399.03;5070731;28;20054;-73
2023/07/22 11:04:11;;;;;;;0.20;0.20;;;;;;;21.01;35.83;97424.06;5070459;28;20036;-73
2023/07/22 11:06:41;;;;;;;0.30;0.30;;;;;;;20.87;36.57;97426.44;5071125;28;20135;-73
2023/07/22 11:09:35;;;;;;;0.08;0.08;;;;;;;20.86;36.66;97435.69;5069645;28;20451;-72
2023/07/22 11:12:04;;;;;;;0.20;0.20;;;;;;;20.81;37.08;97422.09;5071149;28;20056;-75
2023/07/22 11:14:33;;;;;;;0.20;0.20;;;;;;;20.64;38.13;97423.34;5070865;28;20703;-73
2023/07/22 11:17:04;;;;;;;0.20;0.20;;;;;;;20.56;38.83;97418.44;5071674;28;20051;-72
2023/07/22 11:19:33;;;;;;;0.00;0.00;;;;;;;20.74;38.14;97420.69;5052786;28;20471;-72
2023/07/22 11:22:01;;;;;;;0.20;0.20;;;;;;;20.84;38.37;97418.03;5074132;28;20120;-72
2023/07/22 11:24:29;;;;;;;0.20;0.20;;;;;;;21.03;38.09;97418.38;5074908;28;20092;-72
2023/07/22 11:26:57;;;;;;;0.20;0.20;;;;;;;21.16;37.49;97420.59;5075695;28;20132;-72
2023/07/22 11:29:24;;;;;;;0.20;0.20;;;;;;;21.13;36.94;97415.69;5072306;28;20129;-72
2023/07/22 11:31:54;;;;;;;0.17;0.17;;;;;;;20.97;37.10;97425.66;5071914;28;20055;-71
2023/07/22 11:34:24;;;;;;;0.30;0.30;;;;;;;20.72;38.16;97412.81;5070039;28;20055;-71
2023/07/22 11:36:53;;;;;;;0.25;0.25;;;;;;;20.87;37.57;97422.91;5070567;28;20068;-72
2023/07/22 11:39:22;;;;;;;0.20;0.20;;;;;;;21.02;37.52;97419.47;5069944;28;20111;-72
2023/07/22 11:41:51;;;;;;;0.30;0.30;;;;;;;21.20;37.38;97416.28;5071111;28;20542;-73